createdAt,value
2016-02-29T00:00:33.402Z,69.73
2016-02-29T00:01:33.389Z,70.01
2016-02-29T00:02:33.392Z,69.73
2016-02-29T00:03:33.395Z,69.73
2016-02-29T00:04:33.397Z,69.73
2016-02-29T00:05:33.384Z,69.73
2016-02-29T00:06:33.371Z,69.73
2016-02-29T00:07:33.373Z,69.73
2016-02-29T00:08:33.376Z,69.92
2016-02-29T00:09:33.364Z,70.01
2016-02-29T00:10:33.367Z,69.82
2016-02-29T00:11:33.370Z,69.73
2016-02-29T00:12:33.356Z,69.73
2016-02-29T00:13:33.359Z,69.64
2016-02-29T00:14:33.347Z,69.54
2016-02-29T00:15:33.349Z,69.82
2016-02-29T00:16:33.336Z,69.64
2016-02-29T00:17:33.339Z,69.64
2016-02-29T00:18:33.326Z,69.64
2016-02-29T00:19:33.344Z,69.73
2016-02-29T00:20:33.347Z,70.01
2016-02-29T00:21:33.333Z,69.92
2016-02-29T00:22:33.321Z,69.73
2016-02-29T00:23:33.324Z,69.73
2016-02-29T00:24:33.310Z,69.64
2016-02-29T00:25:33.313Z,70.01
2016-02-29T00:26:33.299Z,69.73
2016-02-29T00:27:33.319Z,69.82
2016-02-29T00:28:33.321Z,69.96
2016-02-29T00:29:33.355Z,69.92
2016-02-29T00:30:33.285Z,69.82
2016-02-29T00:31:33.287Z,69.73
2016-02-29T00:32:33.275Z,70.39
2016-02-29T00:33:33.277Z,70.3
2016-02-29T00:34:33.264Z,70.2
2016-02-29T00:35:33.267Z,69.92
2016-02-29T00:36:33.269Z,70.3
2016-02-29T00:37:33.272Z,70.11
2016-02-29T00:38:33.275Z,69.92
2016-02-29T00:39:33.277Z,69.92
2016-02-29T00:40:33.264Z,70.3
2016-02-29T00:41:33.267Z,69.92
2016-02-29T00:42:33.239Z,69.92
2016-02-29T00:43:33.241Z,69.92
2016-02-29T00:44:33.244Z,70.01
2016-02-29T00:45:33.247Z,70.3
2016-02-29T00:46:33.249Z,69.92
2016-02-29T00:47:33.236Z,69.92
2016-02-29T00:48:33.224Z,70.2
2016-02-29T00:49:33.210Z,70.11
2016-02-29T00:50:33.213Z,70.43
2016-02-29T00:51:33.216Z,69.64
2016-02-29T00:52:33.203Z,70.39
2016-02-29T00:53:33.221Z,70.11
2016-02-29T00:54:33.209Z,70.11
2016-02-29T00:55:33.211Z,70.49
2016-02-29T00:56:33.214Z,70.11
2016-02-29T00:57:33.185Z,70.78
2016-02-29T00:58:33.204Z,70.78
2016-02-29T00:59:33.190Z,70.39
2016-02-29T01:00:33.193Z,70.49
2016-02-29T01:01:33.195Z,70.68
2016-02-29T01:02:33.183Z,70.39
2016-02-29T01:03:33.170Z,70.58
2016-02-29T01:04:33.157Z,70.68
2016-02-29T01:05:33.175Z,70.68
2016-02-29T01:06:33.162Z,70.78
2016-02-29T01:07:33.165Z,70.68
2016-02-29T01:08:33.152Z,70.39
2016-02-29T01:09:36.155Z,70.39
2016-02-29T01:10:33.141Z,70.58
2016-02-29T01:11:33.144Z,70.58
2016-02-29T01:12:33.147Z,71.15
2016-02-29T01:13:33.150Z,70.87
2016-02-29T01:14:33.138Z,70.78
2016-02-29T01:15:33.124Z,70.97
2016-02-29T01:16:33.127Z,71.34
2016-02-29T01:17:33.130Z,71.53
2016-02-29T01:18:33.117Z,71.62
2016-02-29T01:19:33.119Z,71.44
2016-02-29T01:20:33.106Z,71.53
2016-02-29T01:21:33.094Z,71.53
2016-02-29T01:22:33.096Z,71.34
2016-02-29T01:23:33.099Z,71.34
2016-02-29T01:24:33.086Z,70.78
2016-02-29T01:25:33.088Z,70.97
2016-02-29T01:26:33.091Z,70.78
2016-02-29T01:27:33.079Z,70.87
2016-02-29T01:28:33.066Z,70.97
2016-02-29T01:29:33.067Z,71.06
2016-02-29T01:30:33.070Z,70.78
2016-02-29T01:31:33.058Z,70.97
2016-02-29T01:32:33.061Z,70.97
2016-02-29T01:33:33.047Z,70.87
2016-02-29T01:34:32.895Z,70.78
2016-02-29T01:35:33.053Z,70.68
2016-02-29T01:36:33.040Z,70.81
2016-02-29T01:37:33.043Z,70.58
2016-02-29T01:38:33.030Z,70.62
2016-02-29T01:39:33.032Z,70.53
2016-02-29T01:40:33.066Z,70.58
2016-02-29T01:41:33.022Z,70.49
2016-02-29T01:42:33.041Z,71.15
2016-02-29T01:43:33.011Z,70.68
2016-02-29T01:44:33.030Z,70.49
2016-02-29T01:45:33.002Z,70.58
2016-02-29T01:46:33.020Z,70.62
2016-02-29T01:47:32.991Z,70.78
2016-02-29T01:48:32.994Z,70.58
2016-02-29T01:49:32.997Z,70.87
2016-02-29T01:50:32.984Z,70.87
2016-02-29T01:51:32.987Z,70.81
2016-02-29T01:52:32.990Z,71.15
2016-02-29T01:53:32.977Z,70.78
2016-02-29T01:54:32.980Z,70.78
2016-02-29T01:55:32.966Z,70.97
2016-02-29T01:56:32.969Z,71.06
2016-02-29T01:57:32.957Z,70.39
2016-02-29T01:58:32.959Z,70.58
2016-02-29T01:59:32.962Z,70.58
2016-02-29T02:00:32.946Z,70.81
2016-02-29T02:01:32.934Z,70.87
2016-02-29T02:02:32.906Z,70.87
2016-02-29T02:03:32.893Z,70.97
2016-02-29T02:04:32.866Z,70.87
2016-02-29T02:05:32.870Z,70.97
2016-02-29T02:06:32.696Z,71.06
2016-02-29T02:07:32.834Z,70.87
2016-02-29T02:08:32.831Z,70.87
2016-02-29T02:09:32.828Z,70.78
2016-02-29T02:10:32.826Z,70.97
2016-02-29T02:11:32.827Z,70.78
2016-02-29T02:12:32.813Z,70.87
2016-02-29T02:13:32.797Z,70.87
2016-02-29T02:14:32.798Z,70.78
2016-02-29T02:15:32.783Z,70.87
2016-02-29T02:16:32.785Z,71.53
2016-02-29T02:17:32.772Z,71.72
2016-02-29T02:18:32.774Z,71.53
2016-02-29T02:19:32.775Z,71.62
2016-02-29T02:20:32.762Z,71.34
2016-02-29T02:21:32.764Z,71.44
2016-02-29T02:22:32.752Z,71.62
2016-02-29T02:23:32.770Z,71.44
2016-02-29T02:24:32.757Z,71.34
2016-02-29T02:25:32.745Z,71.44
2016-02-29T02:26:32.762Z,71
2016-02-29T02:27:32.734Z,71.34
2016-02-29T02:28:32.736Z,71.34
2016-02-29T02:29:32.739Z,71.34
2016-02-29T02:30:32.726Z,71.44
2016-02-29T02:31:32.714Z,71.53
2016-02-29T02:32:32.717Z,71.25
2016-02-29T02:33:32.703Z,71.34
2016-02-29T02:34:32.722Z,71.34
2016-02-29T02:35:32.708Z,71.15
2016-02-29T02:36:32.696Z,71.62
2016-02-29T02:37:32.699Z,71.34
2016-02-29T02:38:32.701Z,71.62
2016-02-29T02:39:32.688Z,71.72
2016-02-29T02:40:32.691Z,71.34
2016-02-29T02:41:32.677Z,71.15
2016-02-29T02:42:32.680Z,71.34
2016-02-29T02:43:32.668Z,72
2016-02-29T02:44:32.671Z,72.1
2016-02-29T02:45:32.673Z,72
2016-02-29T02:46:32.660Z,72.1
2016-02-29T02:47:32.663Z,71.91
2016-02-29T02:48:32.650Z,71.81
2016-02-29T02:49:32.667Z,71.81
2016-02-29T02:50:32.671Z,71.81
2016-02-29T02:51:32.642Z,71.62
2016-02-29T02:52:32.629Z,72.19
2016-02-29T02:53:32.648Z,72.19
2016-02-29T02:54:32.619Z,72
2016-02-29T02:55:32.622Z,72
2016-02-29T02:56:32.625Z,71.81
2016-02-29T02:57:32.611Z,72
2016-02-29T02:58:32.631Z,71.91
2016-02-29T02:59:32.601Z,71.91
2016-02-29T03:00:32.620Z,71.91
2016-02-29T03:01:32.622Z,72
2016-02-29T03:02:32.594Z,71.91
2016-02-29T03:03:32.597Z,71.91
2016-02-29T03:04:32.600Z,71.91
2016-02-29T03:05:32.586Z,72.38
2016-02-29T03:06:32.589Z,71.72
2016-02-29T03:07:32.577Z,71.72
2016-02-29T03:08:32.579Z,72.19
2016-02-29T03:09:32.582Z,72.57
2016-02-29T03:10:32.569Z,72.38
2016-02-29T03:11:32.571Z,72.29
2016-02-29T03:12:32.558Z,72.38
2016-02-29T03:13:32.561Z,72.1
2016-02-29T03:14:32.548Z,72.19
2016-02-29T03:15:32.551Z,72.29
2016-02-29T03:16:32.538Z,72.38
2016-02-29T03:17:32.541Z,72.42
2016-02-29T03:18:32.543Z,72
2016-02-29T03:19:32.546Z,72.38
2016-02-29T03:20:32.532Z,72.42
2016-02-29T03:21:32.535Z,72.77
2016-02-29T03:22:32.522Z,72.57
2016-02-29T03:23:32.526Z,72.8
2016-02-29T03:24:32.512Z,72.77
2016-02-29T03:25:32.515Z,72.48
2016-02-29T03:26:32.502Z,72.38
2016-02-29T03:27:32.505Z,72.52
2016-02-29T03:28:32.508Z,72.48
2016-02-29T03:29:32.495Z,72.48
2016-02-29T03:30:32.498Z,72.67
2016-02-29T03:31:32.484Z,72.71
2016-02-29T03:32:32.487Z,72.99
2016-02-29T03:33:32.489Z,73.14
2016-02-29T03:34:32.478Z,73.08
2016-02-29T03:35:32.480Z,73.05
2016-02-29T03:36:32.467Z,73.08
2016-02-29T03:37:32.469Z,73.14
2016-02-29T03:38:32.456Z,72.67
2016-02-29T03:39:32.458Z,72.71
2016-02-29T03:40:32.461Z,72.89
2016-02-29T03:41:32.448Z,73.24
2016-02-29T03:42:32.451Z,72.71
2016-02-29T03:43:32.439Z,72.99
2016-02-29T03:44:32.441Z,72.67
2016-02-29T03:45:32.443Z,73.14
2016-02-29T03:46:32.446Z,72.67
2016-02-29T03:47:32.449Z,73.46
2016-02-29T03:48:32.515Z,72.86
2016-02-29T03:49:32.502Z,72.8
2016-02-29T03:50:32.410Z,72.96
2016-02-29T03:51:32.413Z,72.86
2016-02-29T03:52:32.415Z,72.67
2016-02-29T03:53:32.404Z,72.86
2016-02-29T03:54:32.406Z,73.05
2016-02-29T03:55:32.409Z,72.99
2016-02-29T03:56:32.411Z,72.99
2016-02-29T03:57:32.414Z,73.24
2016-02-29T03:58:32.401Z,73.33
2016-02-29T03:59:32.388Z,72.86
2016-02-29T04:00:32.390Z,72.67
2016-02-29T04:01:32.378Z,72.89
2016-02-29T04:02:32.381Z,72.86
2016-02-29T04:03:32.368Z,73.33
2016-02-29T04:04:32.370Z,73.14
2016-02-29T04:05:32.358Z,73.33
2016-02-29T04:06:32.361Z,73.14
2016-02-29T04:07:32.363Z,73.14
2016-02-29T04:08:32.380Z,73.14
2016-02-29T04:09:32.336Z,73.14
2016-02-29T04:10:32.355Z,73.05
2016-02-29T04:11:32.341Z,73.33
2016-02-29T04:12:32.344Z,73.33
2016-02-29T04:13:32.332Z,73.33
2016-02-29T04:14:32.335Z,73.14
2016-02-29T04:15:32.321Z,73.24
2016-02-29T04:16:32.340Z,73.27
2016-02-29T04:17:32.310Z,73.24
2016-02-29T04:18:32.330Z,73.8
2016-02-29T04:19:32.316Z,73.9
2016-02-29T04:20:32.304Z,73.9
2016-02-29T04:21:32.291Z,74.18
2016-02-29T04:22:32.293Z,73.84
2016-02-29T04:23:32.296Z,73.8
2016-02-29T04:24:32.314Z,73.71
2016-02-29T04:25:32.301Z,73.52
2016-02-29T04:26:32.273Z,73.33
2016-02-29T04:27:32.292Z,73.14
2016-02-29T04:28:32.280Z,73.71
2016-02-29T04:29:32.266Z,73.14
2016-02-29T04:30:32.300Z,73.9
2016-02-29T04:31:32.303Z,73.99
2016-02-29T04:32:32.259Z,73.61
2016-02-29T04:33:32.246Z,73.9
2016-02-29T04:34:32.248Z,73.84
2016-02-29T04:35:32.236Z,73.99
2016-02-29T04:36:32.238Z,73.99
2016-02-29T04:37:32.241Z,73.71
2016-02-29T04:38:32.243Z,74.32
2016-02-29T04:39:32.231Z,74.37
2016-02-29T04:40:32.249Z,73.94
2016-02-29T04:41:32.236Z,74.09
2016-02-29T04:42:32.223Z,73.9
2016-02-29T04:43:32.226Z,74.09
2016-02-29T04:44:32.212Z,74.66
2016-02-29T04:45:32.200Z,74.51
2016-02-29T04:46:32.203Z,74.56
2016-02-29T04:47:32.205Z,74.66
2016-02-29T04:48:32.193Z,74.69
2016-02-29T04:49:32.195Z,74.41
2016-02-29T04:50:32.183Z,74.47
2016-02-29T04:51:32.185Z,74.47
2016-02-29T04:52:32.203Z,74.98
2016-02-29T04:53:32.175Z,74.95
2016-02-29T04:54:32.177Z,74.79
2016-02-29T04:55:32.180Z,74.85
2016-02-29T04:56:32.183Z,74.56
2016-02-29T04:57:32.170Z,75.07
2016-02-29T04:58:32.172Z,75.07
2016-02-29T04:59:32.160Z,75.17
2016-02-29T05:00:32.162Z,74.95
2016-02-29T05:01:32.150Z,74.98
2016-02-29T05:02:32.152Z,74.85
2016-02-29T05:03:32.139Z,75.04
2016-02-29T05:04:32.141Z,75.7
2016-02-29T05:05:32.144Z,75.51
2016-02-29T05:06:32.119Z,75.13
2016-02-29T05:07:32.152Z,75.79
2016-02-29T05:08:32.124Z,75.64
2016-02-29T05:09:32.127Z,75.32
2016-02-29T05:10:32.129Z,75.51
2016-02-29T05:11:32.117Z,75.64
2016-02-29T05:12:32.119Z,75.6
2016-02-29T05:13:32.106Z,75.84
2016-02-29T05:14:32.110Z,75.6
2016-02-29T05:15:32.096Z,75.7
2016-02-29T05:16:32.099Z,75.74
2016-02-29T05:17:32.086Z,75.74
2016-02-29T05:18:32.089Z,75.6
2016-02-29T05:19:32.091Z,75.93
2016-02-29T05:20:32.078Z,75.98
2016-02-29T05:21:32.081Z,76.03
2016-02-29T05:22:32.083Z,76.03
2016-02-29T05:23:32.086Z,75.84
2016-02-29T05:24:32.058Z,75.93
2016-02-29T05:25:32.060Z,75.51
2016-02-29T05:26:32.063Z,76.03
2016-02-29T05:27:32.066Z,75.79
2016-02-29T05:28:32.053Z,76.31
2016-02-29T05:29:32.055Z,76.12
2016-02-29T05:30:32.043Z,76.31
2016-02-29T05:31:32.045Z,76.31
2016-02-29T05:32:32.048Z,75.89
2016-02-29T05:33:32.036Z,76.27
2016-02-29T05:34:32.038Z,76.21
2016-02-29T05:35:32.025Z,76.12
2016-02-29T05:36:32.012Z,76.27
2016-02-29T05:37:32.015Z,76.08
2016-02-29T05:38:32.002Z,76.12
2016-02-29T05:39:32.005Z,75.98
2016-02-29T05:40:32.007Z,76.12
2016-02-29T05:41:31.994Z,75.7
2016-02-29T05:42:31.996Z,76.27
2016-02-29T05:43:31.985Z,76.31
2016-02-29T05:44:31.986Z,76.08
2016-02-29T05:45:31.974Z,76.27
2016-02-29T05:46:31.993Z,76.08
2016-02-29T05:47:31.979Z,76.03
2016-02-29T05:48:31.982Z,75.89
2016-02-29T05:49:31.970Z,76.12
2016-02-29T05:50:31.956Z,76.21
2016-02-29T05:51:31.959Z,76.17
2016-02-29T05:52:31.962Z,75.93
2016-02-29T05:53:31.948Z,75.74
2016-02-29T05:54:31.936Z,76.17
2016-02-29T05:55:31.953Z,75.89
2016-02-29T05:56:31.941Z,76.08
2016-02-29T05:57:32.030Z,75.98
2016-02-29T05:58:31.967Z,76.21
2016-02-29T05:59:31.974Z,76.03
2016-02-29T06:00:31.948Z,76.27
2016-02-29T06:01:31.913Z,76.12
2016-02-29T06:02:31.916Z,76.03
2016-02-29T06:03:31.919Z,76.17
2016-02-29T06:04:31.905Z,76.31
2016-02-29T06:05:31.909Z,75.98
2016-02-29T06:06:31.895Z,76.4
2016-02-29T06:07:31.914Z,76.27
2016-02-29T06:08:31.885Z,76.17
2016-02-29T06:09:31.888Z,76.46
2016-02-29T06:10:31.875Z,76.08
2016-02-29T06:11:31.878Z,76.08
2016-02-29T06:12:31.865Z,76.36
2016-02-29T06:13:31.868Z,77.06
2016-02-29T06:14:31.870Z,76.65
2016-02-29T06:15:31.874Z,76.84
2016-02-29T06:16:31.860Z,76.74
2016-02-29T06:17:33.761Z,76.65
2016-02-29T06:18:31.858Z,76.65
2016-02-29T06:19:31.844Z,76.74
2016-02-29T06:20:31.832Z,76.46
2016-02-29T06:21:31.834Z,76.65
2016-02-29T06:22:31.852Z,76.46
2016-02-29T06:23:31.824Z,76.84
2016-02-29T06:24:31.827Z,77.06
2016-02-29T06:25:31.829Z,76.84
2016-02-29T06:26:31.817Z,76.68
2016-02-29T06:27:31.803Z,77.06
2016-02-29T06:28:31.806Z,76.68
2016-02-29T06:29:31.809Z,76.68
2016-02-29T06:30:31.812Z,76.31
2016-02-29T06:31:31.814Z,76.21
2016-02-29T06:32:31.801Z,76.5
2016-02-29T06:33:31.819Z,76.59
2016-02-29T06:34:31.791Z,76.93
2016-02-29T06:35:31.778Z,76.55
2016-02-29T06:36:31.797Z,77.03
2016-02-29T06:37:31.784Z,76.97
2016-02-29T06:38:31.770Z,77.06
2016-02-29T06:39:31.773Z,76.68
2016-02-29T06:40:31.760Z,76.31
2016-02-29T06:41:31.763Z,76.97
2016-02-29T06:42:31.766Z,76.87
2016-02-29T06:43:31.769Z,76.84
2016-02-29T06:44:31.755Z,76.93
2016-02-29T06:45:31.758Z,76.55
2016-02-29T06:46:31.745Z,76.93
2016-02-29T06:47:31.733Z,76.17
2016-02-29T06:48:31.735Z,76.08
2016-02-29T06:49:31.738Z,76.12
2016-02-29T06:50:31.740Z,76.31
2016-02-29T06:51:31.727Z,76.08
2016-02-29T06:52:31.715Z,75.98
2016-02-29T06:53:31.717Z,76.17
2016-02-29T06:54:31.704Z,76.84
2016-02-29T06:55:31.707Z,76.17
2016-02-29T06:56:31.694Z,76.17
2016-02-29T06:57:31.696Z,76.17
2016-02-29T06:58:31.699Z,76.84
2016-02-29T06:59:31.686Z,76.65
2016-02-29T07:00:31.690Z,77.03
2016-02-29T07:01:31.692Z,76.55
2016-02-29T07:02:31.695Z,76.17
2016-02-29T07:03:31.681Z,76.08
2016-02-29T07:04:31.669Z,76.21
2016-02-29T07:05:31.687Z,76.27
2016-02-29T07:06:31.674Z,76.78
2016-02-29T07:07:31.661Z,76.87
2016-02-29T07:08:31.648Z,76.84
2016-02-29T07:09:31.650Z,76.08
2016-02-29T07:10:31.653Z,77.06
2016-02-29T07:11:31.641Z,77.03
2016-02-29T07:12:31.627Z,76.93
2016-02-29T07:13:31.630Z,77.06
2016-02-29T07:14:31.664Z,76.84
2016-02-29T07:15:31.620Z,76.46
2016-02-29T07:16:31.622Z,76.87
2016-02-29T07:17:31.610Z,76.97
2016-02-29T07:18:31.628Z,76.87
2016-02-29T07:19:31.600Z,77.06
2016-02-29T07:20:31.602Z,76.68
2016-02-29T07:21:31.605Z,76.4
2016-02-29T07:22:31.607Z,76.4
2016-02-29T07:23:31.595Z,77.06
2016-02-29T07:24:31.598Z,77.06
2016-02-29T07:25:31.600Z,76.59
2016-02-29T07:26:31.588Z,76.59
2016-02-29T07:27:31.590Z,76.78
2016-02-29T07:28:31.577Z,76.97
2016-02-29T07:29:31.579Z,76.84
2016-02-29T07:30:31.582Z,77.06
2016-02-29T07:31:31.570Z,76.93
2016-02-29T07:32:31.572Z,76.84
2016-02-29T07:33:31.559Z,76.78
2016-02-29T07:34:31.546Z,77.06
2016-02-29T07:35:31.548Z,77.06
2016-02-29T07:36:31.551Z,76.87
2016-02-29T07:37:31.539Z,76.78
2016-02-29T07:38:31.541Z,76.68
2016-02-29T07:39:31.529Z,76.87
2016-02-29T07:40:31.531Z,76.97
2016-02-29T07:41:31.519Z,76.87
2016-02-29T07:42:31.521Z,77.16
2016-02-29T07:43:31.524Z,77.16
2016-02-29T07:44:31.527Z,76.78
2016-02-29T07:45:31.514Z,76.87
2016-02-29T07:46:31.516Z,77.16
2016-02-29T07:47:31.519Z,76.87
2016-02-29T07:48:31.506Z,77.16
2016-02-29T07:49:31.493Z,77.25
2016-02-29T07:50:31.496Z,77.16
2016-02-29T07:51:31.482Z,77.25
2016-02-29T07:52:31.485Z,77.54
2016-02-29T07:53:31.488Z,77.45
2016-02-29T07:54:31.475Z,77.35
2016-02-29T07:55:31.477Z,77.64
2016-02-29T07:56:31.465Z,77.83
2016-02-29T07:57:31.468Z,77.45
2016-02-29T07:58:31.471Z,77.54
2016-02-29T07:59:31.457Z,77.54
2016-02-29T08:00:31.460Z,77.83
2016-02-29T08:01:31.462Z,78.2
2016-02-29T08:02:31.434Z,78.2
2016-02-29T08:03:31.436Z,78.39
2016-02-29T08:04:31.439Z,78.2
2016-02-29T08:05:31.459Z,78.2
2016-02-29T08:06:31.445Z,77.83
2016-02-29T08:07:31.431Z,78.11
2016-02-29T08:08:31.419Z,78.2
2016-02-29T08:09:31.422Z,77.92
2016-02-29T08:10:31.425Z,78.3
2016-02-29T08:11:31.428Z,78.39
2016-02-29T08:12:31.414Z,78.39
2016-02-29T08:13:31.401Z,78.39
2016-02-29T08:14:31.403Z,78.49
2016-02-29T08:15:31.406Z,78.39
2016-02-29T08:16:31.393Z,78.49
2016-02-29T08:17:31.396Z,78.58
2016-02-29T08:18:31.399Z,78.77
2016-02-29T08:19:31.386Z,78.77
2016-02-29T08:20:31.388Z,78.87
2016-02-29T08:21:31.376Z,78.67
2016-02-29T08:22:31.378Z,78.58
2016-02-29T08:23:31.366Z,78.67
2016-02-29T08:24:31.369Z,78.77
2016-02-29T08:25:31.355Z,78.67
2016-02-29T08:26:31.358Z,78.58
2016-02-29T08:27:31.346Z,78.67
2016-02-29T08:28:31.363Z,78.87
2016-02-29T08:29:31.350Z,78.87
2016-02-29T08:30:31.337Z,78.77
2016-02-29T08:31:31.341Z,78.39
2016-02-29T08:32:31.327Z,78.67
2016-02-29T08:33:31.330Z,79.06
2016-02-29T08:34:31.332Z,78.49
2016-02-29T08:35:31.335Z,78.49
2016-02-29T08:36:31.322Z,78.58
2016-02-29T08:37:31.325Z,79.15
2016-02-29T08:38:31.312Z,78.58
2016-02-29T08:39:31.300Z,78.77
2016-02-29T08:40:31.303Z,78.87
2016-02-29T08:41:31.305Z,78.77
2016-02-29T08:42:31.292Z,78.67
2016-02-29T08:43:31.294Z,78.77
2016-02-29T08:44:31.282Z,78.49
2016-02-29T08:45:31.706Z,78.87
2016-02-29T08:46:31.287Z,78.49
2016-02-29T08:47:31.274Z,78.2
2016-02-29T08:48:31.277Z,78.11
2016-02-29T08:49:31.279Z,78.2
2016-02-29T08:50:31.282Z,78.2
2016-02-29T08:51:31.284Z,78.11
2016-02-29T08:52:31.256Z,78.39
2016-02-29T08:53:31.259Z,78.2
2016-02-29T08:54:31.261Z,77.92
2016-02-29T08:55:31.264Z,77.92
2016-02-29T08:56:31.251Z,77.92
2016-02-29T08:57:31.254Z,77.92
2016-02-29T08:58:31.240Z,77.83
2016-02-29T08:59:31.228Z,78.3
2016-02-29T09:00:31.232Z,78.2
2016-02-29T09:01:31.234Z,78.2
2016-02-29T09:02:31.221Z,78.02
2016-02-29T09:03:31.239Z,78.2
2016-02-29T09:04:31.209Z,78.02
2016-02-29T09:05:31.045Z,78.2
2016-02-29T09:06:31.215Z,77.64
2016-02-29T09:07:31.233Z,77.83
2016-02-29T09:08:31.205Z,78.39
2016-02-29T09:09:31.207Z,78.3
2016-02-29T09:10:31.210Z,78.02
2016-02-29T09:11:31.180Z,78.3
2016-02-29T09:12:31.183Z,78.2
2016-02-29T09:13:31.171Z,78.2
2016-02-29T09:14:31.189Z,77.92
2016-02-29T09:15:31.177Z,77.83
2016-02-29T09:16:31.194Z,77.83
2016-02-29T09:17:31.165Z,77.92
2016-02-29T09:18:31.169Z,78.02
2016-02-29T09:19:31.157Z,78.2
2016-02-29T09:20:31.159Z,78.39
2016-02-29T09:21:31.177Z,77.92
2016-02-29T09:22:31.148Z,78.2
2016-02-29T09:23:31.151Z,78.3
2016-02-29T09:24:31.137Z,78.2
2016-02-29T09:25:31.140Z,78.11
2016-02-29T09:26:31.144Z,78.2
2016-02-29T09:27:31.131Z,78.87
2016-02-29T09:28:31.149Z,78.67
2016-02-29T09:29:31.120Z,78.39
2016-02-29T09:30:31.122Z,78.39
2016-02-29T09:31:31.109Z,77.64
2016-02-29T09:32:31.098Z,77.64
2016-02-29T09:33:31.100Z,77.54
2016-02-29T09:34:31.103Z,77.92
2016-02-29T09:35:31.105Z,77.25
2016-02-29T09:36:31.092Z,77.45
2016-02-29T09:37:31.095Z,77.25
2016-02-29T09:38:31.083Z,77.54
2016-02-29T09:39:31.085Z,77.83
2016-02-29T09:40:31.088Z,78.02
2016-02-29T09:41:31.074Z,77.83
2016-02-29T09:42:31.093Z,77.35
2016-02-29T09:43:31.079Z,76.87
2016-02-29T09:44:30.910Z,77.35
2016-02-29T09:45:31.054Z,77.35
2016-02-29T09:46:31.057Z,77.73
2016-02-29T10:16:26.074Z,77.45
2016-02-29T10:17:26.076Z,77.45
2016-02-29T10:18:26.065Z,77.45
2016-02-29T10:19:26.067Z,77.54
2016-02-29T10:20:26.054Z,76.87
2016-02-29T10:21:26.056Z,76.87
2016-02-29T10:22:26.043Z,77.54
2016-02-29T10:23:26.061Z,77.06
2016-02-29T10:24:26.048Z,77.16
2016-02-29T10:25:26.067Z,76.87
2016-02-29T10:26:26.039Z,76.87
2016-02-29T10:27:26.025Z,76.87
2016-02-29T10:28:26.028Z,77.06
2016-02-29T10:29:26.031Z,76.87
2016-02-29T10:30:26.018Z,76.68
2016-02-29T10:31:25.270Z,76.12
2016-02-29T10:32:26.008Z,76.78
2016-02-29T10:33:26.010Z,76.12
2016-02-29T10:34:26.013Z,76.21
2016-02-29T10:35:26.000Z,76.68
2016-02-29T10:36:26.003Z,76.87
2016-02-29T10:37:26.005Z,76.78
2016-02-29T10:38:26.008Z,76.97
2016-02-29T10:39:26.011Z,76.4
2016-02-29T10:40:25.998Z,76.21
2016-02-29T10:41:26.001Z,76.12
2016-02-29T10:42:25.816Z,76.03
2016-02-29T10:43:25.974Z,76.21
2016-02-29T10:44:25.977Z,76.21
2016-02-29T10:45:25.965Z,76.03
2016-02-29T10:46:25.968Z,77.06
2016-02-29T10:47:25.970Z,76.87
2016-02-29T10:48:25.957Z,76.68
2016-02-29T10:49:25.960Z,76.03
2016-02-29T10:50:25.962Z,76.21
2016-02-29T10:51:25.965Z,76.21
2016-02-29T10:52:25.952Z,76.21
2016-02-29T10:53:25.954Z,76.03
2016-02-29T10:54:25.942Z,76.31
2016-02-29T10:55:25.960Z,76.12
2016-02-29T10:56:25.947Z,76.21
2016-02-29T10:57:25.950Z,76.21
2016-02-29T10:58:25.953Z,76.31
2016-02-29T10:59:25.939Z,76.12
2016-02-29T11:00:25.927Z,75.93
2016-02-29T11:01:25.930Z,76.12
2016-02-29T11:02:25.933Z,76.21
2016-02-29T11:03:25.919Z,76.4
2016-02-29T11:04:25.922Z,76.21
2016-02-29T11:05:25.914Z,76.12
2016-02-29T11:06:25.898Z,76.21
2016-02-29T11:07:25.890Z,76.31
2016-02-29T11:08:25.882Z,76.21
2016-02-29T11:09:25.858Z,76.12
2016-02-29T11:10:25.833Z,76.12
2016-02-29T11:11:25.826Z,75.93
2016-02-29T11:12:25.841Z,76.21
2016-02-29T11:13:25.809Z,76.21
2016-02-29T11:14:25.807Z,76.12
2016-02-29T11:15:25.807Z,76.21
2016-02-29T11:16:25.806Z,75.93
2016-02-29T11:17:25.791Z,75.93
2016-02-29T11:18:25.792Z,75.93
2016-02-29T11:19:25.778Z,75.64
2016-02-29T11:20:25.795Z,75.93
2016-02-29T11:21:25.766Z,75.93
2016-02-29T11:22:25.783Z,75.64
2016-02-29T11:23:25.754Z,76.12
2016-02-29T11:24:25.772Z,76.12
2016-02-29T11:25:25.744Z,76.21
2016-02-29T11:26:25.761Z,75.93
2016-02-29T11:27:25.732Z,75.93
2016-02-29T11:28:25.734Z,76.21
2016-02-29T11:29:25.737Z,76.12
2016-02-29T11:30:25.723Z,75.84
2016-02-29T11:31:25.726Z,75.93
2016-02-29T11:32:25.728Z,76.03
2016-02-29T11:33:25.731Z,76.21
2016-02-29T11:34:25.719Z,76.21
2016-02-29T11:35:25.721Z,76.21
2016-02-29T11:36:25.724Z,76.03
2016-02-29T11:37:25.695Z,76.21
2016-02-29T11:38:25.713Z,76.12
2016-02-29T11:39:25.732Z,75.84
2016-02-29T11:40:25.688Z,75.55
2016-02-29T11:41:25.690Z,75.45
2016-02-29T11:42:25.693Z,75.93
2016-02-29T11:43:25.680Z,75.55
2016-02-29T11:44:25.682Z,75.55
2016-02-29T11:45:25.685Z,75.84
2016-02-29T11:46:25.672Z,75.74
2016-02-29T11:47:25.676Z,75.84
2016-02-29T11:48:25.662Z,75.84
2016-02-29T11:49:25.665Z,76.03
2016-02-29T11:50:25.652Z,75.84
2016-02-29T11:51:25.654Z,75.74
2016-02-29T11:52:25.642Z,76.03
2016-02-29T11:53:25.645Z,75.55
2016-02-29T11:54:25.648Z,75.55
2016-02-29T11:55:25.634Z,75.55
2016-02-29T11:56:25.637Z,75.64
2016-02-29T11:57:25.623Z,75.55
2016-02-29T11:58:25.626Z,75.93
2016-02-29T11:59:25.629Z,75.84
2016-02-29T12:00:25.601Z,75.36
2016-02-29T12:01:25.619Z,75.45
2016-02-29T12:02:25.606Z,75.84
2016-02-29T12:03:25.624Z,74.88
2016-02-29T12:04:25.596Z,74.69
2016-02-29T12:05:25.599Z,75.07
2016-02-29T12:06:25.602Z,75.74
2016-02-29T12:07:25.589Z,75.64
2016-02-29T12:08:25.575Z,75.17
2016-02-29T12:09:25.594Z,75.45
2016-02-29T12:10:25.580Z,75.45
2016-02-29T12:11:25.583Z,75.36
2016-02-29T12:12:25.571Z,75.84
2016-02-29T12:13:25.574Z,75.74
2016-02-29T12:14:25.560Z,75.84
2016-02-29T12:15:25.563Z,75.84
2016-02-29T12:16:25.566Z,75.93
2016-02-29T12:17:25.553Z,75.93
2016-02-29T12:18:25.538Z,75.55
2016-02-29T12:19:25.540Z,75.55
2016-02-29T12:20:25.543Z,75.64
2016-02-29T12:21:25.530Z,75.55
2016-02-29T12:22:25.532Z,75.26
2016-02-29T12:23:25.863Z,75.64
2016-02-29T12:24:25.523Z,75.55
2016-02-29T12:25:25.509Z,75.64
2016-02-29T12:26:25.512Z,75.64
2016-02-29T12:27:25.514Z,75.84
2016-02-29T12:28:25.501Z,76.03
2016-02-29T12:29:25.504Z,75.84
2016-02-29T12:30:25.506Z,76.4
2016-02-29T12:31:25.494Z,76.12
2016-02-29T12:32:25.497Z,76.68
2016-02-29T12:33:25.483Z,76.68
2016-02-29T12:34:25.487Z,76.21
2016-02-29T12:35:25.473Z,76.68
2016-02-29T12:36:25.492Z,77.06
2016-02-29T12:37:25.464Z,76.97
2016-02-29T12:38:25.466Z,77.06
2016-02-29T12:39:25.469Z,77.06
2016-02-29T12:40:25.471Z,77.16
2016-02-29T12:41:25.459Z,76.97
2016-02-29T12:42:25.446Z,77.12
2016-02-29T12:43:25.495Z,77.25
2016-02-29T12:44:25.435Z,77.25
2016-02-29T12:45:25.438Z,77.78
2016-02-29T12:46:25.440Z,77.59
2016-02-29T12:47:25.428Z,77.59
2016-02-29T12:48:25.430Z,77.59
2016-02-29T12:49:25.418Z,78.26
2016-02-29T12:50:25.420Z,77.4
2016-02-29T12:51:25.423Z,77.78
2016-02-29T12:52:25.410Z,76.84
2016-02-29T12:53:25.413Z,77.88
2016-02-29T12:54:25.415Z,78.16
2016-02-29T12:55:25.402Z,78.64
2016-02-29T12:56:25.405Z,78.92
2016-02-29T12:57:25.392Z,78.07
2016-02-29T12:58:25.410Z,77.59
2016-02-29T12:59:25.381Z,77.22
2016-02-29T13:00:25.384Z,77.12
2016-02-29T13:01:25.387Z,77.59
2016-02-29T13:02:25.375Z,78.45
2016-02-29T13:03:25.377Z,78.07
2016-02-29T13:04:25.364Z,78.92
2016-02-29T13:05:25.357Z,78.35
2016-02-29T13:06:25.345Z,77.88
2016-02-29T13:07:25.347Z,78.83
2016-02-29T13:08:25.365Z,77.78
2016-02-29T13:09:25.352Z,77.97
2016-02-29T13:10:25.355Z,78.16
2016-02-29T13:11:25.326Z,78.07
2016-02-29T13:12:25.329Z,77.31
2016-02-29T13:13:25.254Z,77.4
2016-02-29T13:14:25.319Z,77.12
2016-02-29T13:15:25.322Z,77.22
2016-02-29T13:16:25.324Z,77.03
2016-02-29T13:17:25.327Z,77.12
2016-02-29T13:18:25.314Z,77.22
2016-02-29T13:19:25.301Z,77.12
2016-02-29T13:20:25.303Z,77.88
2016-02-29T13:21:25.338Z,77.22
2016-02-29T13:22:25.293Z,77.22
2016-02-29T13:23:25.311Z,77.4
2016-02-29T13:24:25.299Z,77.59